High temp

Not for real navigation. The accuracy of this data is not assured See disclaimer for more information



ICAO NAME COUNTRY WIND Kt GUST Kt VIS m TEMP/DEW C BARO METAR
YBDV 6 0 9999 47/5 29.56 YBDV 190600Z AUTO 27006KT 190V320 //// // ////// 47/05 Q1001
YCCY 7 0 9999 43/10 29.62 YCCY 190600Z AUTO 10007KT 050V120 9999 // SCT125 43/10 Q1003
YBHI 9 0 9999 43/3 29.62 YBHI 190600Z AUTO 31009KT 9999 // NCD 43/03 Q1003
YRMD 5 0 9999 42/11 29.65 YRMD 190600Z AUTO 35005KT 9999 // SCT115 42/11 Q1004
YCBA 13 0 9999 42/4 29.65 YCBA 190600Z AUTO 24013KT 230V340 9999 // NCD 42/04 Q1004

Show more